Time;durP1;ratioP1;P1;durP2;ratioP2;P2;SDS_P1;SDS_P2;PMS_P1;PMS_P2;Temp;Humidity;BMP_temperature;BMP_pressure;BME280_temperature;BME280_humidity;BME280_pressure;Samples;Min_cycle;Max_cycle;Signal;HPM_P1;HPM_P2
2022/09/30 00:01:00;;;;;;;2.03;0.93;;;;;;;;;;5035064;28;20017;-72
2022/09/30 00:03:27;;;;;;;3.67;0.93;;;;;;;;;;5034962;28;20040;-72
2022/09/30 00:05:58;;;;;;;1.58;0.80;;;;;;;;;;5034795;28;20022;-72
2022/09/30 00:08:24;;;;;;;1.13;0.87;;;;;;;;;;5035221;28;20033;-72
2022/09/30 00:11:15;;;;;;;1.48;0.88;;;;;;;;;;5034261;28;20660;-72
2022/09/30 00:13:41;;;;;;;1.27;0.60;;;;;;;;;;5034812;28;20041;-72
2022/09/30 00:16:09;;;;;;;1.25;0.75;;;;;;;;;;5034706;28;20021;-72
2022/09/30 00:18:36;;;;;;;1.00;0.70;;;;;;;;;;5034498;28;20034;-72
2022/09/30 00:21:02;;;;;;;2.72;0.73;;;;;;;;;;5034551;28;20401;-72
2022/09/30 00:23:29;;;;;;;0.90;0.70;;;;;;;;;;5034157;28;20033;-71
2022/09/30 00:25:59;;;;;;;1.17;0.70;;;;;;;;;;5034862;28;20030;-72
2022/09/30 00:28:26;;;;;;;2.50;0.90;;;;;;;;;;5033233;28;20140;-72
2022/09/30 00:30:52;;;;;;;1.40;0.77;;;;;;;;;;5034583;28;20017;-72
2022/09/30 00:33:19;;;;;;;1.75;0.70;;;;;;;;;;5034514;28;20030;-71
2022/09/30 00:35:45;;;;;;;1.63;0.70;;;;;;;;;;5034388;28;20028;-72
2022/09/30 00:38:11;;;;;;;1.50;0.73;;;;;;;;;;5033955;28;20474;-72
2022/09/30 00:40:38;;;;;;;0.98;0.70;;;;;;;;;;5049886;28;20025;-72
2022/09/30 00:43:13;;;;;;;3.40;0.70;;;;;;;;;;5034122;28;20038;-72
2022/09/30 00:45:40;;;;;;;3.85;0.80;;;;;;;;;;5034688;28;20035;-72
2022/09/30 00:48:11;;;;;;;1.85;0.90;;;;;;;;;;5034333;28;20046;-72
2022/09/30 00:50:45;;;;;;;3.15;0.60;;;;;;;;;;5034095;28;20041;-72
2022/09/30 00:53:19;;;;;;;3.55;0.70;;;;;;;;;;5033685;28;20025;-72
2022/09/30 00:55:58;;;;;;;2.88;0.50;;;;;;;;;;5034096;28;20021;-72
2022/09/30 00:58:28;;;;;;;1.05;0.52;;;;;;;;;;5034190;28;20025;-72
2022/09/30 01:00:54;;;;;;;3.30;0.90;;;;;;;;;;5049311;28;20463;-72
2022/09/30 01:03:22;;;;;;;3.22;0.90;;;;;;;;;;5033738;28;20450;-72
2022/09/30 01:05:50;;;;;;;2.78;0.65;;;;;;;;;;5033508;28;20026;-72
2022/09/30 01:08:17;;;;;;;6.13;0.70;;;;;;;;;;5033506;28;20025;-72
2022/09/30 01:10:43;;;;;;;1.35;0.57;;;;;;;;;;5032246;28;20028;-72
2022/09/30 01:13:10;;;;;;;1.05;0.70;;;;;;;;;;5033417;28;20045;-72
2022/09/30 01:15:47;;;;;;;3.03;0.70;;;;;;;;;;5033965;28;20037;-71
2022/09/30 01:18:18;;;;;;;1.63;0.70;;;;;;;;;;5033408;28;20030;-72
2022/09/30 01:20:54;;;;;;;0.80;0.70;;;;;;;;;;5033538;28;20466;-72
2022/09/30 01:23:40;;;;;;;1.40;0.70;;;;;;;;;;5033382;28;20063;-72
2022/09/30 01:26:44;;;;;;;5.88;0.75;;;;;;;;;;5033198;28;20032;-72
2022/09/30 01:29:31;;;;;;;1.38;0.70;;;;;;;;;;5010758;28;20026;-72
2022/09/30 01:32:01;;;;;;;2.05;0.70;;;;;;;;;;5004932;28;20040;-72
2022/09/30 01:34:36;;;;;;;5.82;0.85;;;;;;;;;;5011417;28;20045;-72
2022/09/30 01:37:02;;;;;;;0.93;0.50;;;;;;;;;;5010895;28;20029;-72
2022/09/30 01:39:37;;;;;;;1.00;0.70;;;;;;;;;;4994874;28;20048;-72
2022/09/30 01:42:14;;;;;;;5.78;0.85;;;;;;;;;;5011199;28;20442;-71
2022/09/30 01:44:40;;;;;;;2.45;0.80;;;;;;;;;;5011293;28;20026;-72
2022/09/30 01:47:10;;;;;;;2.45;0.70;;;;;;;;;;5010806;28;20068;-72
2022/09/30 01:49:39;;;;;;;1.15;0.70;;;;;;;;;;5011080;28;20030;-72
2022/09/30 01:52:06;;;;;;;6.15;0.80;;;;;;;;;;5010912;28;20026;-72
2022/09/30 01:54:50;;;;;;;2.95;0.82;;;;;;;;;;5011114;28;20030;-72
2022/09/30 01:57:17;;;;;;;2.25;0.88;;;;;;;;;;5010794;28;20394;-72
2022/09/30 01:59:49;;;;;;;3.50;0.70;;;;;;;;;;5020413;28;20040;-72
2022/09/30 02:02:21;;;;;;;2.75;0.85;;;;;;;;;;5032797;28;20378;-72
2022/09/30 02:05:13;;;;;;;2.63;0.70;;;;;;;;;;5032195;28;20032;-70
2022/09/30 02:07:46;;;;;;;3.13;0.60;;;;;;;;;;5031362;28;20053;-72
2022/09/30 02:10:16;;;;;;;3.78;0.88;;;;;;;;;;5032725;28;20436;-72
2022/09/30 02:13:06;;;;;;;3.17;1.00;;;;;;;;;;5032315;28;20580;-72
2022/09/30 02:15:35;;;;;;;3.13;1.13;;;;;;;;;;5029482;28;20044;-72
2022/09/30 02:18:04;;;;;;;3.33;1.40;;;;;;;;;;5032467;28;20029;-71
2022/09/30 02:20:36;;;;;;;3.80;1.20;;;;;;;;;;5032111;28;20023;-72
2022/09/30 02:23:14;;;;;;;2.97;1.20;;;;;;;;;;5032510;28;20055;-72
2022/09/30 02:26:04;;;;;;;3.42;0.85;;;;;;;;;;5032445;28;20488;-70
2022/09/30 02:28:31;;;;;;;1.40;0.80;;;;;;;;;;5032531;28;20038;-72
2022/09/30 02:30:59;;;;;;;2.95;1.30;;;;;;;;;;5032368;28;20026;-71
2022/09/30 02:33:38;;;;;;;5.05;1.00;;;;;;;;;;5032195;28;20481;-72
2022/09/30 02:36:10;;;;;;;3.80;1.00;;;;;;;;;;5031772;28;20037;-72
2022/09/30 02:38:39;;;;;;;3.05;0.75;;;;;;;;;;5032115;28;20026;-72
2022/09/30 02:41:09;;;;;;;0.93;0.80;;;;;;;;;;5031256;28;20018;-72
2022/09/30 02:43:35;;;;;;;3.30;1.20;;;;;;;;;;5032312;28;20033;-72
2022/09/30 02:46:13;;;;;;;2.05;1.00;;;;;;;;;;5032019;28;20032;-72
2022/09/30 02:48:45;;;;;;;2.88;1.00;;;;;;;;;;5031675;28;20032;-72
2022/09/30 02:51:29;;;;;;;9.10;1.20;;;;;;;;;;5032053;28;20067;-72
2022/09/30 02:54:03;;;;;;;2.72;1.02;;;;;;;;;;5032242;28;20025;-72
2022/09/30 02:56:32;;;;;;;2.45;0.90;;;;;;;;;;5032208;28;20029;-71
2022/09/30 02:58:59;;;;;;;5.72;1.45;;;;;;;;;;5032079;28;20505;-71
2022/09/30 03:01:25;;;;;;;1.73;1.00;;;;;;;;;;5031971;28;20029;-71
2022/09/30 03:03:54;;;;;;;4.50;0.80;;;;;;;;;;5031266;28;20088;-71
2022/09/30 03:06:20;;;;;;;1.55;0.80;;;;;;;;;;5031855;28;20035;-71
2022/09/30 03:08:47;;;;;;;4.47;1.00;;;;;;;;;;5031936;28;20028;-72
2022/09/30 03:11:17;;;;;;;1.30;1.00;;;;;;;;;;5031662;28;20028;-71
2022/09/30 03:13:44;;;;;;;1.60;1.08;;;;;;;;;;5031702;28;20036;-72
2022/09/30 03:16:13;;;;;;;5.93;1.15;;;;;;;;;;5031815;28;20033;-71
2022/09/30 03:18:39;;;;;;;1.63;0.95;;;;;;;;;;5031514;28;20026;-71
2022/09/30 03:21:08;;;;;;;2.75;1.10;;;;;;;;;;5031770;28;20031;-72
2022/09/30 03:23:45;;;;;;;1.75;0.98;;;;;;;;;;5031704;28;20497;-72
2022/09/30 03:26:11;;;;;;;3.67;1.10;;;;;;;;;;5032211;28;20037;-71
2022/09/30 03:28:53;;;;;;;1.98;0.90;;;;;;;;;;5031927;28;20059;-71
2022/09/30 03:31:25;;;;;;;4.10;1.10;;;;;;;;;;5031595;28;20047;-72
2022/09/30 03:33:51;;;;;;;3.85;1.10;;;;;;;;;;5031483;28;20034;-71
2022/09/30 03:36:31;;;;;;;4.43;1.13;;;;;;;;;;5031711;28;20032;-71
2022/09/30 03:39:12;;;;;;;1.88;0.93;;;;;;;;;;5031666;28;20032;-71
2022/09/30 03:41:45;;;;;;;5.55;1.40;;;;;;;;;;5031704;28;20017;-71
2022/09/30 03:44:17;;;;;;;1.45;1.10;;;;;;;;;;5031606;28;20026;-71
2022/09/30 03:46:50;;;;;;;5.15;1.20;;;;;;;;;;5046403;28;20414;-71
2022/09/30 03:49:20;;;;;;;1.30;1.20;;;;;;;;;;5031727;28;20028;-72
2022/09/30 03:51:47;;;;;;;3.22;1.10;;;;;;;;;;5032484;28;20029;-72
2022/09/30 03:54:15;;;;;;;2.67;1.30;;;;;;;;;;5035243;28;20030;-72
2022/09/30 03:56:42;;;;;;;5.22;1.20;;;;;;;;;;5035267;28;20025;-71
2022/09/30 03:59:27;;;;;;;1.38;1.10;;;;;;;;;;5035166;28;20031;-72
2022/09/30 04:01:53;;;;;;;3.88;1.30;;;;;;;;;;5034580;28;20033;-72
2022/09/30 04:04:20;;;;;;;2.28;1.23;;;;;;;;;;5034836;28;20389;-72
2022/09/30 04:06:46;;;;;;;4.13;1.38;;;;;;;;;;5034972;28;20039;-72
2022/09/30 04:09:13;;;;;;;2.40;1.35;;;;;;;;;;5034851;28;20030;-72
2022/09/30 04:11:39;;;;;;;3.42;1.25;;;;;;;;;;5034586;28;20037;-72
2022/09/30 04:14:06;;;;;;;5.80;1.20;;;;;;;;;;5034700;28;20448;-72
2022/09/30 04:16:32;;;;;;;1.50;1.27;;;;;;;;;;5034251;28;20437;-72
2022/09/30 04:18:58;;;;;;;1.70;1.20;;;;;;;;;;5034672;28;20032;-71
2022/09/30 04:21:27;;;;;;;6.80;1.20;;;;;;;;;;5034502;28;20029;-71
2022/09/30 04:23:54;;;;;;;4.10;1.08;;;;;;;;;;5034511;28;20440;-72
2022/09/30 04:26:20;;;;;;;2.05;1.42;;;;;;;;;;5034381;28;20033;-72
2022/09/30 04:28:47;;;;;;;1.73;1.30;;;;;;;;;;5034724;28;20048;-72
2022/09/30 04:31:16;;;;;;;2.30;1.23;;;;;;;;;;5034277;28;20024;-72
2022/09/30 04:33:44;;;;;;;4.38;1.50;;;;;;;;;;5034384;28;20041;-71
2022/09/30 04:36:10;;;;;;;2.47;1.10;;;;;;;;;;5034332;28;20021;-72
2022/09/30 04:38:36;;;;;;;3.95;1.48;;;;;;;;;;5049993;28;20033;-72
2022/09/30 04:41:04;;;;;;;4.72;1.63;;;;;;;;;;5034284;28;20026;-72
2022/09/30 04:43:30;;;;;;;3.10;1.45;;;;;;;;;;5034185;28;20036;-70
2022/09/30 04:45:57;;;;;;;2.35;1.63;;;;;;;;;;5033695;28;20025;-70
2022/09/30 04:48:23;;;;;;;1.92;1.20;;;;;;;;;;5034184;28;20034;-71
2022/09/30 04:50:50;;;;;;;1.77;1.02;;;;;;;;;;5034065;28;20025;-71
2022/09/30 04:53:17;;;;;;;2.65;1.40;;;;;;;;;;5034102;28;20048;-71
2022/09/30 04:55:44;;;;;;;4.15;1.40;;;;;;;;;;5033919;28;20497;-70
2022/09/30 04:58:11;;;;;;;2.15;1.48;;;;;;;;;;5034083;28;20030;-70
2022/09/30 05:00:37;;;;;;;1.48;1.35;;;;;;;;;;5033742;28;20051;-72
2022/09/30 05:03:04;;;;;;;4.57;1.65;;;;;;;;;;5033298;28;20026;-72
2022/09/30 05:05:32;;;;;;;2.40;1.38;;;;;;;;;;5033380;28;20356;-71
2022/09/30 05:08:05;;;;;;;2.92;1.27;;;;;;;;;;5032301;28;20045;-71
2022/09/30 05:10:31;;;;;;;4.40;1.60;;;;;;;;;;5033556;28;20467;-72
2022/09/30 05:12:58;;;;;;;4.07;1.40;;;;;;;;;;5033463;28;20041;-71
2022/09/30 05:15:25;;;;;;;5.07;1.40;;;;;;;;;;5033482;28;20029;-72
2022/09/30 05:17:51;;;;;;;9.75;1.52;;;;;;;;;;5033504;28;20033;-72
2022/09/30 05:20:18;;;;;;;4.13;1.70;;;;;;;;;;5033640;28;20385;-71
2022/09/30 05:22:44;;;;;;;4.82;1.60;;;;;;;;;;5033555;28;20360;-71
2022/09/30 05:25:10;;;;;;;2.38;1.27;;;;;;;;;;5033576;28;20017;-72
2022/09/30 05:27:37;;;;;;;3.67;1.52;;;;;;;;;;5048710;28;20040;-71
2022/09/30 05:30:05;;;;;;;1.92;1.30;;;;;;;;;;5032922;28;20385;-72
2022/09/30 05:32:31;;;;;;;1.80;1.33;;;;;;;;;;5048613;28;20030;-72
2022/09/30 05:34:58;;;;;;;1.42;1.33;;;;;;;;;;5033382;28;20029;-71
2022/09/30 05:37:24;;;;;;;4.28;1.30;;;;;;;;;;5033085;28;20656;-71
2022/09/30 05:39:50;;;;;;;4.45;1.42;;;;;;;;;;5033345;28;20039;-72
2022/09/30 05:42:16;;;;;;;4.20;1.63;;;;;;;;;;5032725;28;20079;-71
2022/09/30 05:44:43;;;;;;;6.57;1.52;;;;;;;;;;5033065;28;20030;-71
2022/09/30 05:47:10;;;;;;;3.08;1.52;;;;;;;;;;5032800;28;20045;-72
2022/09/30 05:49:36;;;;;;;2.88;1.55;;;;;;;;;;5033222;28;20020;-72
2022/09/30 05:52:04;;;;;;;16.52;7.35;;;;;;;;;;5032798;28;20490;-72
2022/09/30 05:54:30;;;;;;;8.18;2.42;;;;;;;;;;5033030;28;20017;-72
2022/09/30 05:56:56;;;;;;;3.17;2.05;;;;;;;;;;5032471;28;20464;-72
2022/09/30 05:59:23;;;;;;;4.45;2.10;;;;;;;;;;5032949;28;20025;-71
2022/09/30 06:01:49;;;;;;;5.20;2.80;;;;;;;;;;5032543;28;20021;-71
2022/09/30 06:04:15;;;;;;;7.32;2.53;;;;;;;;;;5032485;28;20017;-72
2022/09/30 06:06:42;;;;;;;3.13;1.65;;;;;;;;;;5032473;28;20033;-71
2022/09/30 06:09:08;;;;;;;2.13;1.30;;;;;;;;;;5027447;28;20021;-71
2022/09/30 06:11:34;;;;;;;4.90;1.95;;;;;;;;;;5033306;28;20292;-72
2022/09/30 06:14:01;;;;;;;2.47;2.10;;;;;;;;;;5021101;28;20030;-72
2022/09/30 06:16:27;;;;;;;7.35;2.28;;;;;;;;;;5031957;28;20022;-72
2022/09/30 06:18:54;;;;;;;7.53;1.98;;;;;;;;;;5031840;28;20039;-72
2022/09/30 06:21:21;;;;;;;2.72;1.63;;;;;;;;;;5031717;28;20032;-70
2022/09/30 06:23:47;;;;;;;3.85;1.65;;;;;;;;;;5037587;28;20033;-72
2022/09/30 06:26:14;;;;;;;2.92;1.33;;;;;;;;;;5031362;28;20047;-72
2022/09/30 06:28:41;;;;;;;2.50;1.52;;;;;;;;;;5032665;28;20517;-71
2022/09/30 06:31:07;;;;;;;4.60;1.35;;;;;;;;;;5033614;28;20433;-72
2022/09/30 06:33:34;;;;;;;2.33;1.30;;;;;;;;;;5035261;28;20032;-72
2022/09/30 06:36:03;;;;;;;8.68;1.50;;;;;;;;;;5030146;28;20520;-76
2022/09/30 06:38:34;;;;;;;9.00;1.60;;;;;;;;;;5036859;28;20017;-72
2022/09/30 06:41:01;;;;;;;8.00;1.60;;;;;;;;;;5032113;28;20491;-72
2022/09/30 06:43:27;;;;;;;5.22;1.98;;;;;;;;;;5031504;28;20037;-72
2022/09/30 06:45:53;;;;;;;4.28;2.53;;;;;;;;;;5031999;28;20036;-72
2022/09/30 06:48:21;;;;;;;9.00;2.35;;;;;;;;;;5031489;28;20029;-71
2022/09/30 06:50:48;;;;;;;12.40;5.00;;;;;;;;;;5031091;28;20024;-71
2022/09/30 06:53:14;;;;;;;4.18;3.03;;;;;;;;;;5031295;28;20025;-72
2022/09/30 06:55:41;;;;;;;3.80;1.92;;;;;;;;;;5031217;28;20021;-72
2022/09/30 06:58:12;;;;;;;6.20;1.80;;;;;;;;;;5031029;28;20029;-71
2022/09/30 07:00:39;;;;;;;15.60;2.70;;;;;;;;;;5034687;28;20070;-72
2022/09/30 07:03:08;;;;;;;9.05;3.20;;;;;;;;;;5031399;28;20425;-72
2022/09/30 07:05:37;;;;;;;6.22;1.40;;;;;;;;;;5031520;28;20467;-71
2022/09/30 07:08:04;;;;;;;3.30;1.23;;;;;;;;;;5031383;28;20457;-72
2022/09/30 07:10:31;;;;;;;7.07;1.45;;;;;;;;;;5030930;28;20021;-72
2022/09/30 07:12:59;;;;;;;1.80;1.25;;;;;;;;;;5031444;28;20103;-72
2022/09/30 07:15:25;;;;;;;3.60;1.20;;;;;;;;;;5031388;28;20028;-72
2022/09/30 07:17:52;;;;;;;2.58;1.20;;;;;;;;;;5021501;28;20100;-72
2022/09/30 07:20:19;;;;;;;4.50;1.40;;;;;;;;;;5031397;28;20013;-72
2022/09/30 07:22:46;;;;;;;5.93;1.60;;;;;;;;;;5034185;28;20040;-72
2022/09/30 07:25:13;;;;;;;113.25;69.22;;;;;;;;;;5033137;28;20059;-72
2022/09/30 07:27:40;;;;;;;40.92;25.90;;;;;;;;;;5032030;28;20045;-71
2022/09/30 07:30:06;;;;;;;31.15;19.23;;;;;;;;;;5037189;28;20026;-72
2022/09/30 07:32:33;;;;;;;10.43;6.97;;;;;;;;;;5034909;28;20029;-71
2022/09/30 07:34:59;;;;;;;5.03;3.00;;;;;;;;;;5034990;28;20060;-71
2022/09/30 07:37:25;;;;;;;4.78;2.95;;;;;;;;;;5034916;28;20021;-72
2022/09/30 07:39:52;;;;;;;9.27;5.80;;;;;;;;;;5033361;28;20029;-72
2022/09/30 07:42:20;;;;;;;13.40;2.35;;;;;;;;;;5023415;28;20736;-71
2022/09/30 07:44:47;;;;;;;5.03;1.75;;;;;;;;;;5033078;28;20025;-72
2022/09/30 07:47:13;;;;;;;4.45;1.63;;;;;;;;;;5034880;28;20041;-72
2022/09/30 07:49:40;;;;;;;3.63;1.40;;;;;;;;;;5034878;28;20020;-72
2022/09/30 07:52:07;;;;;;;11.15;1.73;;;;;;;;;;5034488;28;20486;-72
2022/09/30 07:54:34;;;;;;;10.23;1.75;;;;;;;;;;5034579;28;20075;-72
2022/09/30 07:57:01;;;;;;;3.78;1.17;;;;;;;;;;5034817;28;20032;-72
2022/09/30 07:59:29;;;;;;;3.03;1.25;;;;;;;;;;5036583;28;20014;-72
2022/09/30 08:01:55;;;;;;;2.10;1.42;;;;;;;;;;5036948;28;20041;-71
2022/09/30 08:04:22;;;;;;;2.67;1.70;;;;;;;;;;5034714;28;20015;-72
2022/09/30 08:06:50;;;;;;;5.25;4.05;;;;;;;;;;5034464;28;20094;-72
2022/09/30 08:09:18;;;;;;;2.60;1.90;;;;;;;;;;5034497;28;20026;-72
2022/09/30 08:11:44;;;;;;;7.60;4.22;;;;;;;;;;5034216;28;20056;-72
2022/09/30 08:14:15;;;;;;;3.03;2.40;;;;;;;;;;5034721;28;20037;-71
2022/09/30 08:16:41;;;;;;;5.40;1.50;;;;;;;;;;5034320;28;20055;-71
2022/09/30 08:19:12;;;;;;;4.10;1.60;;;;;;;;;;5029012;28;20028;-72
2022/09/30 08:21:38;;;;;;;4.53;1.75;;;;;;;;;;5034521;28;20022;-71
2022/09/30 08:24:05;;;;;;;3.95;1.77;;;;;;;;;;5036850;28;20025;-72
2022/09/30 08:26:31;;;;;;;2.90;1.50;;;;;;;;;;5037461;28;20477;-72
2022/09/30 08:28:58;;;;;;;12.32;1.90;;;;;;;;;;5034172;28;20025;-72
2022/09/30 08:31:25;;;;;;;4.68;1.02;;;;;;;;;;5034941;28;20031;-72
2022/09/30 08:33:51;;;;;;;1.40;1.00;;;;;;;;;;5036531;28;20501;-72
2022/09/30 08:36:27;;;;;;;3.13;0.98;;;;;;;;;;5033518;28;20028;-72
2022/09/30 08:38:53;;;;;;;4.43;0.93;;;;;;;;;;5032730;28;20025;-72
2022/09/30 08:41:26;;;;;;;2.78;1.05;;;;;;;;;;5033867;28;20030;-72
2022/09/30 08:43:52;;;;;;;1.35;0.90;;;;;;;;;;5033866;28;20494;-73
2022/09/30 08:46:28;;;;;;;4.40;1.33;;;;;;;;;;5032666;28;20025;-72
2022/09/30 08:49:12;;;;;;;1.98;0.70;;;;;;;;;;5033725;28;20389;-70
2022/09/30 08:51:43;;;;;;;2.03;1.00;;;;;;;;;;5033291;28;20032;-70
2022/09/30 08:54:09;;;;;;;;;;;;;;;;;;5034091;28;20385;-71
2022/09/30 08:56:36;;;;;;;5.13;1.20;;;;;;;;;;5033331;28;19905;-70
2022/09/30 08:59:05;;;;;;;4.05;1.00;;;;;;;;;;5033592;28;20032;-70
2022/09/30 09:01:37;;;;;;;0.75;0.73;;;;;;;;;;5037578;28;20565;-70
2022/09/30 09:04:05;;;;;;;2.03;1.00;;;;;;;;;;5035071;28;20027;-70
2022/09/30 09:06:31;;;;;;;1.83;1.33;;;;;;;;;;5032994;28;20466;-71
2022/09/30 09:09:12;;;;;;;6.13;0.98;;;;;;;;;;5033300;28;20033;-71
2022/09/30 09:11:58;;;;;;;1.73;0.70;;;;;;;;;;5033193;28;20041;-71
2022/09/30 09:14:49;;;;;;;0.73;0.60;;;;;;;;;;5033079;28;20036;-71
2022/09/30 09:17:24;;;;;;;2.25;0.90;;;;;;;;;;4983467;28;20038;-71
2022/09/30 09:19:57;;;;;;;1.42;0.82;;;;;;;;;;5010715;28;20060;-70
2022/09/30 09:22:25;;;;;;;2.53;0.80;;;;;;;;;;5010966;28;20048;-71
2022/09/30 09:24:53;;;;;;;1.92;0.80;;;;;;;;;;5006706;28;20052;-71
2022/09/30 09:27:19;;;;;;;2.40;0.73;;;;;;;;;;5006762;28;20052;-70
2022/09/30 09:29:49;;;;;;;1.67;0.80;;;;;;;;;;5017704;28;20414;-71
2022/09/30 09:32:16;;;;;;;5.00;0.80;;;;;;;;;;5010836;28;20032;-71
2022/09/30 09:34:43;;;;;;;1.55;0.70;;;;;;;;;;5010920;28;20030;-71
2022/09/30 09:37:20;;;;;;;3.58;0.68;;;;;;;;;;5011163;28;20030;-70
2022/09/30 09:39:46;;;;;;;1.88;0.60;;;;;;;;;;5010731;28;20040;-70
2022/09/30 09:42:36;;;;;;;0.95;0.60;;;;;;;;;;5010960;28;20552;-70
2022/09/30 09:45:08;;;;;;;2.67;0.60;;;;;;;;;;5010458;28;20478;-71
2022/09/30 09:47:35;;;;;;;1.00;0.52;;;;;;;;;;5005221;28;20050;-70
2022/09/30 09:50:03;;;;;;;2.38;0.77;;;;;;;;;;4994218;28;20398;-70
2022/09/30 09:52:39;;;;;;;3.22;0.60;;;;;;;;;;4990912;28;20036;-70
2022/09/30 09:55:05;;;;;;;1.65;0.68;;;;;;;;;;5009877;28;20103;-71
2022/09/30 09:57:32;;;;;;;3.22;0.70;;;;;;;;;;5012719;28;20026;-71
2022/09/30 10:02:59;;;;;;;2.25;0.40;;;;;;;;;;5025205;28;20029;-70
2022/09/30 10:05:28;;;;;;;9.88;0.85;;;;;;;;;;5029092;28;20033;-71
2022/09/30 10:08:10;;;;;;;4.15;0.63;;;;;;;;;;5032102;28;20041;-71
2022/09/30 10:10:53;;;;;;;2.40;0.60;;;;;;;;;;5032097;28;20029;-70
2022/09/30 10:13:23;;;;;;;1.48;0.70;;;;;;;;;;5032101;28;20052;-70
2022/09/30 10:15:54;;;;;;;2.85;0.73;;;;;;;;;;5032133;28;20017;-69
2022/09/30 10:18:20;;;;;;;;;;;;;;;;;;5032191;28;20039;-70
2022/09/30 10:20:51;;;;;;;3.45;0.70;;;;;;;;;;5047610;28;19909;-70
2022/09/30 10:23:19;;;;;;;2.03;0.60;;;;;;;;;;5047357;28;20052;-70
2022/09/30 10:26:03;;;;;;;3.75;0.52;;;;;;;;;;5032046;28;20021;-70
2022/09/30 10:28:31;;;;;;;3.88;0.60;;;;;;;;;;5031771;28;20033;-70
2022/09/30 10:31:05;;;;;;;2.75;0.52;;;;;;;;;;5032066;28;20030;-70
2022/09/30 10:33:34;;;;;;;1.25;0.50;;;;;;;;;;5047229;28;20398;-70
2022/09/30 10:36:12;;;;;;;4.45;0.55;;;;;;;;;;5031893;28;20086;-70
2022/09/30 10:38:45;;;;;;;2.67;0.50;;;;;;;;;;5031976;28;20036;-71
2022/09/30 10:41:11;;;;;;;1.50;0.60;;;;;;;;;;5032142;28;20032;-71
2022/09/30 10:43:49;;;;;;;0.80;0.50;;;;;;;;;;5032463;28;20029;-70
2022/09/30 10:46:23;;;;;;;0.68;0.68;;;;;;;;;;5032144;28;20017;-70
2022/09/30 10:48:52;;;;;;;28.55;2.00;;;;;;;;;;5031560;28;20045;-71
2022/09/30 10:51:45;;;;;;;9.88;2.00;;;;;;;;;;5031868;28;20017;-70
2022/09/30 10:54:31;;;;;;;1.88;0.90;;;;;;;;;;5030819;28;20038;-71
2022/09/30 10:57:02;;;;;;;3.85;1.73;;;;;;;;;;5031677;28;20490;-70
2022/09/30 10:59:37;;;;;;;2.33;1.55;;;;;;;;;;5032036;28;20031;-70
2022/09/30 11:02:23;;;;;;;2.15;1.00;;;;;;;;;;5047801;28;20033;-70
2022/09/30 11:05:01;;;;;;;1.63;0.70;;;;;;;;;;5035598;28;20029;-69
2022/09/30 11:07:31;;;;;;;2.30;0.63;;;;;;;;;;5035899;28;20048;-70
2022/09/30 11:10:23;;;;;;;4.18;0.85;;;;;;;;;;5035590;28;20018;-70
2022/09/30 11:12:54;;;;;;;2.75;0.80;;;;;;;;;;5013646;28;20074;-70
2022/09/30 11:15:21;;;;;;;3.25;1.10;;;;;;;;;;5013871;28;20417;-70
2022/09/30 11:17:50;;;;;;;1.52;0.73;;;;;;;;;;5013549;28;20101;-70
2022/09/30 11:20:26;;;;;;;2.97;1.08;;;;;;;;;;5013874;28;20449;-70
2022/09/30 11:22:56;;;;;;;0.77;0.65;;;;;;;;;;5013727;28;20033;-70
2022/09/30 11:25:39;;;;;;;1.60;1.10;;;;;;;;;;4997215;28;20030;-71
2022/09/30 11:28:19;;;;;;;1.42;0.70;;;;;;;;;;5013413;28;20045;-70
2022/09/30 11:30:48;;;;;;;2.58;0.60;;;;;;;;;;5013276;28;20038;-70
2022/09/30 11:33:35;;;;;;;5.05;1.00;;;;;;;;;;5013567;28;20032;-70
2022/09/30 11:36:14;;;;;;;17.88;1.75;;;;;;;;;;5006856;28;20045;-70
2022/09/30 11:38:40;;;;;;;4.53;0.90;;;;;;;;;;5010759;28;20032;-70
2022/09/30 11:41:09;;;;;;;4.28;0.68;;;;;;;;;;5010204;28;20025;-69
2022/09/30 11:43:41;;;;;;;1.02;0.60;;;;;;;;;;5012793;28;20044;-70
2022/09/30 11:46:23;;;;;;;1.33;0.47;;;;;;;;;;5012793;28;21456;-70
2022/09/30 11:48:49;;;;;;;0.93;0.63;;;;;;;;;;5013352;28;20057;-70
2022/09/30 11:51:15;;;;;;;2.65;0.70;;;;;;;;;;5030315;28;20053;-70
2022/09/30 11:53:45;;;;;;;2.50;0.50;;;;;;;;;;5015254;28;20034;-70
2022/09/30 11:56:31;;;;;;;1.38;0.70;;;;;;;;;;5014951;28;20534;-71
2022/09/30 11:58:59;;;;;;;1.23;0.38;;;;;;;;;;5023240;28;20033;-71
2022/09/30 12:01:38;;;;;;;1.85;0.52;;;;;;;;;;5034880;28;20021;-71
2022/09/30 12:04:17;;;;;;;4.82;0.75;;;;;;;;;;5033956;28;20014;-70
2022/09/30 12:06:43;;;;;;;1.42;0.60;;;;;;;;;;5033641;28;20029;-71
2022/09/30 12:09:14;;;;;;;2.63;0.70;;;;;;;;;;5034476;28;20046;-71
2022/09/30 12:11:59;;;;;;;1.45;0.60;;;;;;;;;;5032478;28;20516;-70
2022/09/30 12:14:31;;;;;;;5.35;0.60;;;;;;;;;;5033607;28;20045;-71
2022/09/30 12:16:59;;;;;;;3.28;0.70;;;;;;;;;;5032289;28;20075;-70
2022/09/30 12:19:32;;;;;;;1.33;0.50;;;;;;;;;;5033649;28;20035;-71
2022/09/30 12:22:04;;;;;;;2.20;0.47;;;;;;;;;;5026892;28;20486;-71
2022/09/30 12:24:46;;;;;;;2.97;0.40;;;;;;;;;;5033985;28;20029;-71
2022/09/30 12:27:33;;;;;;;0.93;0.38;;;;;;;;;;5033784;28;20031;-70
2022/09/30 12:30:16;;;;;;;1.30;0.50;;;;;;;;;;5033422;28;20017;-70
2022/09/30 12:32:45;;;;;;;1.35;0.60;;;;;;;;;;5033468;28;20036;-70
2022/09/30 12:35:16;;;;;;;1.42;0.50;;;;;;;;;;5027400;28;20020;-70
2022/09/30 12:37:49;;;;;;;2.53;0.70;;;;;;;;;;5014054;28;20388;-71
2022/09/30 12:40:21;;;;;;;1.10;0.55;;;;;;;;;;5032721;28;20005;-70
2022/09/30 12:42:51;;;;;;;2.08;0.52;;;;;;;;;;5033363;28;20393;-70
2022/09/30 12:45:17;;;;;;;0.47;0.30;;;;;;;;;;5031274;28;20513;-69
2022/09/30 12:47:49;;;;;;;0.50;0.40;;;;;;;;;;5032893;28;20038;-71
2022/09/30 12:50:18;;;;;;;1.55;0.40;;;;;;;;;;5033050;28;20047;-70
2022/09/30 12:52:45;;;;;;;1.52;0.45;;;;;;;;;;5033475;28;20429;-71
2022/09/30 12:55:17;;;;;;;2.13;0.50;;;;;;;;;;5046337;28;20364;-71
2022/09/30 12:57:44;;;;;;;0.88;0.40;;;;;;;;;;5033317;28;20021;-71
2022/09/30 13:00:18;;;;;;;1.60;0.50;;;;;;;;;;5033519;28;20020;-71
2022/09/30 13:02:46;;;;;;;0.75;0.40;;;;;;;;;;5033600;28;20036;-71
2022/09/30 13:05:33;;;;;;;1.85;0.40;;;;;;;;;;5033527;28;20029;-71
2022/09/30 13:08:03;;;;;;;1.15;0.50;;;;;;;;;;5032228;28;20041;-71
2022/09/30 13:10:33;;;;;;;0.95;0.60;;;;;;;;;;5031234;28;20025;-71
2022/09/30 13:13:18;;;;;;;1.27;0.50;;;;;;;;;;5032565;28;20034;-71
2022/09/30 13:15:46;;;;;;;2.50;0.40;;;;;;;;;;5031877;28;20412;-71
2022/09/30 13:18:28;;;;;;;3.03;0.50;;;;;;;;;;5033123;28;20024;-71
2022/09/30 13:21:09;;;;;;;0.68;0.52;;;;;;;;;;5014176;28;20386;-71
2022/09/30 13:23:43;;;;;;;3.05;0.73;;;;;;;;;;5018633;28;20025;-71
2022/09/30 13:26:28;;;;;;;1.95;0.68;;;;;;;;;;5029961;28;20032;-71
2022/09/30 13:29:17;;;;;;;1.55;0.43;;;;;;;;;;5032085;28;20077;-71
2022/09/30 13:31:49;;;;;;;3.25;0.90;;;;;;;;;;5029726;28;20026;-71
2022/09/30 13:34:23;;;;;;;3.58;0.95;;;;;;;;;;5032859;28;20048;-71
2022/09/30 13:36:50;;;;;;;1.25;0.73;;;;;;;;;;5032621;28;20020;-71
2022/09/30 13:39:27;;;;;;;1.60;0.70;;;;;;;;;;5032553;28;20032;-71
2022/09/30 13:42:06;;;;;;;16.60;1.15;;;;;;;;;;5032356;28;20031;-71
2022/09/30 13:44:35;;;;;;;4.15;0.90;;;;;;;;;;5022759;28;20013;-71
2022/09/30 13:47:09;;;;;;;2.53;1.33;;;;;;;;;;5014934;28;20032;-70
2022/09/30 13:49:54;;;;;;;4.00;1.48;;;;;;;;;;5027898;28;20091;-70
2022/09/30 13:52:23;;;;;;;4.45;1.13;;;;;;;;;;5018544;28;20028;-71
2022/09/30 13:54:50;;;;;;;1.25;1.10;;;;;;;;;;5025265;28;20845;-71
2022/09/30 13:57:20;;;;;;;4.32;1.25;;;;;;;;;;5032059;28;20433;-71
2022/09/30 13:59:49;;;;;;;2.35;1.10;;;;;;;;;;5031678;28;20025;-71
2022/09/30 14:02:16;;;;;;;2.45;1.02;;;;;;;;;;5031019;28;20013;-71
2022/09/30 14:04:44;;;;;;;2.45;1.20;;;;;;;;;;5031937;28;20376;-71
2022/09/30 14:07:26;;;;;;;1.20;0.40;;;;;;;;;;5032163;28;20036;-71
2022/09/30 14:10:01;;;;;;;2.25;0.65;;;;;;;;;;5030960;28;20021;-70
2022/09/30 14:12:46;;;;;;;0.85;0.70;;;;;;;;;;5030266;28;20387;-71
2022/09/30 14:15:22;;;;;;;3.28;0.88;;;;;;;;;;5030417;28;20030;-70
2022/09/30 14:18:01;;;;;;;1.58;0.63;;;;;;;;;;5029994;28;20037;-71
2022/09/30 14:20:35;;;;;;;2.58;0.57;;;;;;;;;;5030796;28;20642;-71
2022/09/30 14:23:02;;;;;;;3.70;0.77;;;;;;;;;;5028746;28;20025;-71
2022/09/30 14:25:33;;;;;;;1.13;0.70;;;;;;;;;;5031430;28;20035;-70
2022/09/30 14:28:22;;;;;;;1.80;0.55;;;;;;;;;;5031527;28;20037;-70
2022/09/30 14:33:33;;;;;;;1.48;0.77;;;;;;;;;;5032716;28;20017;-70
2022/09/30 14:36:00;;;;;;;2.03;0.90;;;;;;;;;;5031792;28;20033;-71
2022/09/30 14:38:28;;;;;;;1.88;0.80;;;;;;;;;;5030931;28;20021;-71
2022/09/30 14:41:08;;;;;;;1.83;0.80;;;;;;;;;;5030320;28;20505;-71
2022/09/30 14:43:36;;;;;;;2.13;0.80;;;;;;;;;;5011982;28;20402;-69
2022/09/30 14:46:07;;;;;;;3.33;1.45;;;;;;;;;;5018387;28;20037;-71
2022/09/30 14:48:36;;;;;;;3.50;1.02;;;;;;;;;;5030853;28;20041;-70
2022/09/30 14:51:11;;;;;;;1.83;0.70;;;;;;;;;;5029506;28;20021;-70
2022/09/30 14:53:42;;;;;;;1.48;0.70;;;;;;;;;;5028798;28;20033;-71
2022/09/30 14:56:20;;;;;;;1.23;0.75;;;;;;;;;;5031534;28;20029;-71
2022/09/30 14:58:51;;;;;;;0.73;0.50;;;;;;;;;;5029124;28;20083;-71
2022/09/30 15:01:18;;;;;;;1.67;1.10;;;;;;;;;;5029269;28;20049;-70
2022/09/30 15:03:47;;;;;;;1.80;1.10;;;;;;;;;;5031365;28;20405;-70
2022/09/30 15:06:18;;;;;;;2.38;1.15;;;;;;;;;;5030885;28;20020;-71
2022/09/30 15:08:45;;;;;;;5.60;1.08;;;;;;;;;;5031231;28;20036;-71
2022/09/30 15:11:17;;;;;;;2.33;1.20;;;;;;;;;;5031226;28;20018;-71